TFM - Tactical Decision Aid
ID: Runway Winds: CIG/VIS Threshold:

KSTL - St Louis/Lambert Int, MO, US

Updated at: 0150 UTC 12 May 2021
Latest TAF at: 2321 UTC 11 May 2021

TAF Board

Time0051Z 12/02Z 12/03Z 12/04Z 12/05Z 12/06Z 12/07Z 12/08Z 12/09Z 12/10Z 12/11Z 12/12Z 12/13Z 12/14Z>>
Type OBS PRVL PRVL PRVL PRVL PRVL PRVL PRVL PRVL PRVL PRVL PRVL PRVL PRVL
VIS 10 >6 >6 >6 >6 >6 >6 >6 >6 >6 >6 >6 >6 >6
CIG 130 120 120 120 120 120 120 120 120 120 120 120 120 120
Cover OVC BKN BKN BKN BKN BKN BKN BKN BKN BKN BKN BKN BKN BKN
FltCat VFR VFR VFR VFR VFR VFR VFR VFR VFR VFR VFR VFR VFR VFR
WX -- -- -- -- -- -- -- -- -- -- -- -- -- --
WDir 70 60 60 60 60 60 60 60 60 60 60 60 60 60
WSpd 6 8 8 8 8 8 8 8 8 8 8 8 8 8
WGst -- -- -- -- -- -- -- -- -- -- -- -- -- --

TDA Impact Legend

  None Marginal Slight Moderate High
Visibility (sm) >5 3≤X≤5 1≤X<3 0.5≤X<1 <0.5
Ceiling (100 ft) >30 10≤X≤30 4≤X<10 2≤X<4 <2
Wind Speed (kt) <15 15≤X<25 25≤X<30 ≥30
Wind Gust (kt) <15 15≤X<25 25≤X<35 ≥35
Weather No Wx Reported VCTS -TS,-FZRA TS,FZRA +TS,+FZRA
TAF
KSTL 112321Z 1200/1306 06008KT P6SM BKN120
  FM121600 07010KT P6SM FEW150


METAR
KSTL 120051Z 07006KT 10SM FEW050 BKN130 OVC250 13/02 A3029 RMK AO2 SLP258 T01330022
KSTL 112351Z 07008KT 10SM FEW050 BKN110 OVC250 14/02 A3028 RMK AO2 SLP253 T01390022 10156 20139 51006
KSTL 112251Z 08012KT 10SM FEW050 BKN110 OVC250 14/02 A3027 RMK AO2 SLP251 T01390022

Radar Display
Forecast Discussion